Time;durP1;ratioP1;P1;durP2;ratioP2;P2;SDS_P1;SDS_P2;PMS_P1;PMS_P2;Temp;Humidity;BMP_temperature;BMP_pressure;BME280_temperature;BME280_humidity;BME280_pressure;Samples;Min_cycle;Max_cycle;Signal;HPM_P1;HPM_P2
2023/02/05 00:00:56;;;;;;;;;5.00;4.33;;;;;10.91;57.53;103857.34;2010965;28;2743029;-76
2023/02/05 00:02:10;;;;;;;;;3.50;3.50;;;;;10.89;58.19;103860.84;1996295;28;2754423;-76
2023/02/05 00:03:23;;;;;;;;;5.50;5.50;;;;;10.90;57.61;103859.97;2003196;28;2746111;-76
2023/02/05 00:04:37;;;;;;;;;6.17;3.50;;;;;10.89;58.11;103866.97;2012667;28;2752872;-76
2023/02/05 00:05:51;;;;;;;;;5.50;4.83;;;;;10.89;58.19;103872.22;1997556;28;2746098;-76
2023/02/05 00:07:04;;;;;;;;;5.33;4.50;;;;;10.89;57.92;103866.97;2020990;28;2754446;-76
2023/02/05 00:08:17;;;;;;;;;4.83;3.83;;;;;10.89;57.88;103872.22;2020242;28;2747183;-76
2023/02/05 00:09:28;;;;;;;;;6.00;4.67;;;;;10.89;58.09;103869.59;1995119;28;2746101;-76
2023/02/05 00:10:40;;;;;;;;;8.50;4.25;;;;;10.90;58.10;103875.75;2019662;28;2744019;-76
2023/02/05 00:11:54;;;;;;;;;4.00;4.00;;;;;10.90;57.58;103862.59;2020365;28;2754424;-76
2023/02/05 00:13:07;;;;;;;;;4.50;4.33;;;;;10.90;58.16;103868.75;1999015;28;2746141;-76
2023/02/05 00:14:21;;;;;;;;;6.17;4.33;;;;;10.90;58.52;103868.75;2006027;28;2748174;-76
2023/02/05 00:15:38;;;;;;;;;5.17;2.83;;;;;10.88;57.65;103859.94;2021670;28;2744040;-75
2023/02/05 00:16:52;;;;;;;;;5.67;4.67;;;;;10.87;57.63;103863.44;2012900;28;2746111;-76
2023/02/05 00:18:05;;;;;;;;;4.83;4.67;;;;;10.87;57.56;103862.53;2032336;28;2745088;-76
2023/02/05 00:19:15;;;;;;;;;4.00;4.00;;;;;10.85;57.42;103857.25;1972203;28;2750276;-76
2023/02/05 00:20:27;;;;;;;;;5.00;4.33;;;;;10.84;57.54;103863.38;2028046;28;2747152;-76
2023/02/05 00:21:40;;;;;;;;;4.00;4.00;;;;;10.83;57.50;103860.72;2012910;28;2749227;-76
2023/02/05 00:22:53;;;;;;;;;3.33;3.33;;;;;10.81;57.18;103863.34;2004955;28;2750261;-76
2023/02/05 00:24:07;;;;;;;;;5.67;3.17;;;;;10.80;56.72;103865.06;1997827;28;2737774;-76
2023/02/05 00:25:20;;;;;;;;;4.00;3.00;;;;;10.79;57.59;103865.06;2022890;28;2733614;-76
2023/02/05 00:26:33;;;;;;;;;3.67;2.83;;;;;10.77;57.00;103866.75;2005926;28;2741917;-76
2023/02/05 00:27:47;;;;;;;;;3.67;3.00;;;;;10.75;57.45;103858.84;1997989;28;2737793;-76
2023/02/05 00:29:00;;;;;;;;;5.67;4.17;;;;;10.76;57.40;103855.38;2024973;28;2744007;-76
2023/02/05 00:30:13;;;;;;;;;4.50;3.50;;;;;10.77;57.38;103859.75;2014027;28;2752348;-76
2023/02/05 00:31:27;;;;;;;;;4.00;4.00;;;;;10.79;57.27;103865.94;2013797;28;2748186;-76
2023/02/05 00:32:40;;;;;;;;;3.17;3.00;;;;;10.80;57.01;103862.44;2013540;28;2746102;-76
2023/02/05 00:33:53;;;;;;;;;5.17;3.00;;;;;10.80;56.97;103862.44;2037181;28;2728394;-76
2023/02/05 00:35:07;;;;;;;;;3.50;3.50;;;;;10.82;56.94;103862.47;2037100;28;2748206;-76
2023/02/05 00:36:20;;;;;;;;;4.17;3.33;;;;;10.82;57.12;103857.19;2014312;28;2740349;-76
2023/02/05 00:37:33;;;;;;;;;3.67;3.33;;;;;10.84;56.88;103857.25;2014431;28;2746606;-76
2023/02/05 00:38:47;;;;;;;;;3.83;3.83;;;;;10.84;57.04;103858.09;2013078;28;2735694;-76
2023/02/05 00:40:00;;;;;;;;;4.50;3.67;;;;;10.85;56.05;103859.00;2013429;28;2748194;-76
2023/02/05 00:41:14;;;;;;;;;4.17;3.17;;;;;10.83;56.51;103847.56;2007589;28;2739885;-76
2023/02/05 00:42:27;;;;;;;;;3.00;1.83;;;;;10.82;56.45;103857.19;1996870;28;2753422;-76
2023/02/05 00:43:41;;;;;;;;;3.83;2.00;;;;;10.83;56.54;103856.34;2021521;28;2747168;-76
2023/02/05 00:44:55;;;;;;;;;3.00;3.00;;;;;10.83;55.85;103853.72;2006469;28;2741948;-76
2023/02/05 00:46:09;;;;;;;;;4.33;2.67;;;;;10.84;56.32;103858.09;1995905;28;2752435;-76
2023/02/05 00:47:22;;;;;;;;;3.00;2.50;;;;;10.82;56.32;103851.94;2022409;28;2741933;-76
2023/02/05 00:48:36;;;;;;;;;3.33;2.67;;;;;10.84;56.24;103846.72;2005375;28;2754954;-76
2023/02/05 00:49:49;;;;;;;;;4.00;3.00;;;;;10.83;56.17;103851.09;2006408;28;2736731;-76
2023/02/05 00:51:02;;;;;;;;;2.83;2.83;;;;;10.83;56.62;103852.84;2029031;28;2737805;-76
2023/02/05 00:52:16;;;;;;;;;3.50;2.67;;;;;10.83;56.39;103855.47;2019936;28;2742994;-76
2023/02/05 00:53:29;;;;;;;;;4.17;2.83;;;;;10.83;56.15;103844.94;2030106;28;2754431;-76
2023/02/05 00:54:42;;;;;;;;;3.83;3.00;;;;;10.84;56.32;103846.72;2004688;28;2754432;-76
2023/02/05 00:55:56;;;;;;;;;3.67;3.00;;;;;10.85;54.84;103852.00;2006843;28;2739872;-76
2023/02/05 00:57:09;;;;;;;;;2.17;2.00;;;;;10.84;55.72;103855.47;2021143;28;2749232;-76
2023/02/05 00:58:23;;;;;;;;;2.83;2.83;;;;;10.84;56.29;103851.97;1998465;28;2739856;-76
2023/02/05 00:59:36;;;;;;;;;2.83;2.00;;;;;10.84;56.08;103854.63;2028769;28;2729968;-76
2023/02/05 01:00:50;;;;;;;;;5.17;3.00;;;;;10.84;55.70;103852.84;2005847;28;2730474;-76
2023/02/05 01:02:03;;;;;;;;;3.00;2.00;;;;;10.83;55.10;103843.19;2005513;28;2739850;-76
2023/02/05 01:03:17;;;;;;;;;4.17;2.67;;;;;10.82;55.37;103849.31;1998960;28;2738831;-76
2023/02/05 01:04:30;;;;;;;;;1.17;1.17;;;;;10.80;55.33;103841.41;2007178;28;2721100;-76
2023/02/05 01:05:44;;;;;;;;;2.67;2.00;;;;;10.81;55.34;103842.28;2028935;28;2751307;-76
2023/02/05 01:06:57;;;;;;;;;3.50;3.00;;;;;10.82;55.74;103845.78;2006249;28;2739873;-76
2023/02/05 01:08:12;;;;;;;;;3.83;3.00;;;;;10.82;55.48;103843.16;2029144;28;2737762;-77
2023/02/05 01:09:25;;;;;;;;;4.67;3.17;;;;;10.85;55.80;103841.47;2028552;28;2747214;-76
2023/02/05 01:10:43;;;;;;;;;1.50;1.50;;;;;10.86;55.56;103835.34;2029424;28;2741952;-76
2023/02/05 01:11:57;;;;;;;;;0.17;0.17;;;;;10.87;55.28;103838.84;2007620;28;2739880;-76
2023/02/05 01:13:11;;;;;;;;;1.50;1.50;;;;;10.87;55.44;103831.84;2037209;28;2738814;-76
2023/02/05 01:14:24;;;;;;;;;2.33;1.83;;;;;10.89;54.48;103824.00;2006300;28;2752415;-76
2023/02/05 01:15:37;;;;;;;;;3.17;1.83;;;;;10.90;55.27;103820.50;2015557;28;2739864;-76
2023/02/05 01:16:51;;;;;;;;;2.83;2.50;;;;;10.90;55.40;103820.50;2013886;28;2731546;-76
2023/02/05 01:18:04;;;;;;;;;1.67;1.33;;;;;10.90;55.13;103813.47;2013624;28;2740409;-76
2023/02/05 01:19:17;;;;;;;;;2.00;2.00;;;;;10.92;55.20;103818.75;2036589;28;2750644;-76
2023/02/05 01:20:31;;;;;;;;;3.17;2.17;;;;;10.94;55.15;103808.28;2012611;28;2754490;-76
2023/02/05 01:21:44;;;;;;;;;2.67;2.00;;;;;10.94;54.91;103816.16;2005312;28;2741929;-76
2023/02/05 01:22:57;;;;;;;;;2.00;1.17;;;;;10.93;54.56;103819.66;1997501;28;2747175;-76
2023/02/05 01:24:10;;;;;;;;;5.17;3.33;;;;;10.91;54.60;103817.00;2029065;28;2739885;-76
2023/02/05 01:25:23;;;;;;;;;2.00;2.00;;;;;10.90;53.78;103815.22;2013619;28;2754435;-76
2023/02/05 01:26:37;;;;;;;;;3.50;2.17;;;;;10.88;54.48;103811.69;2012979;28;2754814;-76
2023/02/05 01:27:50;;;;;;;;;1.33;1.17;;;;;10.87;54.83;103815.16;2014288;28;2735685;-76
2023/02/05 01:29:03;;;;;;;;;3.33;2.17;;;;;10.88;54.19;103812.59;2004347;28;2753405;-76
2023/02/05 01:30:16;;;;;;;;;1.83;1.50;;;;;10.87;54.77;103815.16;2007380;28;2734664;-76
2023/02/05 01:31:30;;;;;;;;;2.00;1.50;;;;;10.88;54.70;103801.16;2013939;28;2737773;-76
2023/02/05 01:32:43;;;;;;;;;2.33;2.00;;;;;10.89;54.92;103813.47;2013442;28;2730474;-76
2023/02/05 01:33:56;;;;;;;;;1.50;1.50;;;;;10.89;54.60;103808.22;2033969;28;2749248;-76
2023/02/05 01:35:09;;;;;;;;;3.00;2.00;;;;;10.89;54.90;103816.97;2028576;28;2752341;-76
2023/02/05 01:36:23;;;;;;;;;3.00;3.00;;;;;10.90;54.69;103816.13;2006315;28;2732573;-76
2023/02/05 01:37:36;;;;;;;;;4.00;3.00;;;;;10.90;54.64;103821.38;2032590;28;2748241;-76
2023/02/05 01:38:49;;;;;;;;;2.50;2.17;;;;;10.90;54.47;103823.13;2013102;28;2740933;-76
2023/02/05 01:40:03;;;;;;;;;1.50;1.50;;;;;10.90;54.57;103836.28;1996874;28;2748174;-76
2023/02/05 01:41:16;;;;;;;;;2.00;1.00;;;;;10.90;54.51;103831.00;2020985;28;2725332;-76
2023/02/05 01:42:31;;;;;;;;;2.17;1.17;;;;;10.90;54.66;103828.38;2022024;28;2738167;-76
2023/02/05 01:44:08;;;;;;;;;4.50;2.00;;;;;10.92;54.56;103824.03;2028931;28;2751299;-76
2023/02/05 01:45:21;;;;;;;;;4.33;3.33;;;;;10.95;54.83;103823.19;2004964;28;2748193;-76
2023/02/05 01:46:36;;;;;;;;;2.50;2.50;;;;;10.95;54.55;103824.06;1995733;28;2751315;-76
2023/02/05 01:47:51;;;;;;;;;2.33;2.33;;;;;10.98;54.71;103817.97;2020317;28;2744044;-76
2023/02/05 01:49:06;;;;;;;;;1.50;1.17;;;;;10.98;54.22;103813.59;1998967;28;2731563;-76
2023/02/05 01:50:25;;;;;;;;;2.33;1.00;;;;;10.98;54.45;103803.06;2020849;28;2725254;-76
2023/02/05 01:51:39;;;;;;;;;2.67;2.17;;;;;10.98;54.00;103800.44;2013577;28;2748199;-76
2023/02/05 01:52:53;;;;;;;;;3.67;2.33;;;;;10.99;54.25;103804.81;2024027;28;2752359;-76
2023/02/05 01:54:07;;;;;;;;;1.83;1.00;;;;;10.98;54.12;103803.06;2013145;28;2743004;-76
2023/02/05 01:55:20;;;;;;;;;2.83;2.33;;;;;10.99;53.88;103799.56;2028064;28;2754439;-76
2023/02/05 01:56:45;;;;;;;;;1.17;1.00;;;;;10.99;54.61;103806.56;2005184;28;2733626;-76
2023/02/05 01:58:00;;;;;;;;;2.50;2.50;;;;;10.99;54.75;103798.66;2028615;28;2748186;-76
2023/02/05 01:59:23;;;;;;;;;2.83;1.50;;;;;11.00;54.97;103803.97;2011291;28;2733588;-76
2023/02/05 02:00:36;;;;;;;;;3.00;3.00;;;;;11.02;55.04;103810.16;2036678;28;2737788;-76
2023/02/05 02:01:50;;;;;;;;;1.67;1.00;;;;;11.02;54.18;103799.63;2035489;28;2752380;-76
2023/02/05 02:03:04;;;;;;;;;2.83;1.83;;;;;11.03;54.33;103797.88;2029233;28;2737785;-76
2023/02/05 02:04:41;;;;;;;;;4.00;3.50;;;;;11.05;54.51;103784.72;1996595;28;2748213;-76
2023/02/05 02:05:56;;;;;;;;;4.00;2.50;;;;;11.05;54.96;103787.34;1998037;28;2734126;-76
2023/02/05 02:07:18;;;;;;;;;3.67;2.67;;;;;11.06;55.24;103781.25;2031389;28;2739877;-76
2023/02/05 02:08:32;;;;;;;;;3.00;3.00;;;;;11.06;55.65;103791.78;2036020;28;2748662;-76
2023/02/05 02:09:47;;;;;;;;;2.83;2.33;;;;;11.07;54.72;103783.00;2005254;28;2747155;-76
2023/02/05 02:11:04;;;;;;;;;2.67;2.67;;;;;11.07;55.11;103783.00;2005290;28;2747136;-76
2023/02/05 02:12:26;;;;;;;;;3.83;3.00;;;;;11.07;54.89;103776.00;2020705;28;2737782;-76
2023/02/05 02:13:40;;;;;;;;;3.00;1.50;;;;;11.07;55.35;103775.09;1997511;28;2735698;-76
2023/02/05 02:14:59;;;;;;;;;3.50;3.00;;;;;11.06;55.52;103765.44;2028609;28;2746610;-76
2023/02/05 02:16:13;;;;;;;;;2.83;2.50;;;;;11.07;55.63;103764.56;2036468;28;2739947;-76
2023/02/05 02:17:27;;;;;;;;;3.17;3.17;;;;;11.07;55.54;103761.94;2019642;28;2741955;-76
2023/02/05 02:18:41;;;;;;;;;5.00;3.50;;;;;11.07;55.45;103767.19;2012561;28;2754424;-76
2023/02/05 02:20:00;;;;;;;;;3.50;1.67;;;;;11.07;55.48;103765.47;1998768;28;2746099;-76
2023/02/05 02:21:22;;;;;;;;;3.33;2.83;;;;;11.07;56.14;103764.56;2006207;28;2738800;-76
2023/02/05 02:22:53;;;;;;;;;3.83;3.17;;;;;11.07;55.86;103762.81;2005196;28;2750339;-76
2023/02/05 02:24:40;;;;;;;;;4.17;3.33;;;;;11.07;55.91;103761.94;2012003;28;2748190;-76
2023/02/05 02:26:31;;;;;;;;;4.67;4.50;;;;;11.07;55.54;103751.41;2028186;28;2752354;-76
2023/02/05 02:27:49;;;;;;;;;4.00;3.33;;;;;11.06;55.23;103752.28;2005323;28;2737761;-76
2023/02/05 02:29:03;;;;;;;;;4.00;2.83;;;;;11.06;55.49;103741.75;2010118;28;2736732;-76
2023/02/05 02:30:24;;;;;;;;;5.00;3.67;;;;;11.06;55.64;103747.03;2002426;28;2754436;-76
2023/02/05 02:31:44;;;;;;;;;5.67;4.33;;;;;11.04;56.09;103752.25;1996322;28;2745068;-76
2023/02/05 02:33:35;;;;;;;;;5.00;3.50;;;;;11.05;55.27;103755.78;1999557;28;2746595;-76
2023/02/05 02:34:53;;;;;;;;;3.33;3.00;;;;;11.05;54.78;103758.41;1995313;28;2735757;-76
2023/02/05 02:36:29;;;;;;;;;4.33;4.33;;;;;11.05;54.91;103759.28;2028341;28;2741963;-76
2023/02/05 02:37:51;;;;;;;;;4.50;3.83;;;;;11.04;54.79;103752.25;2002919;28;2752375;-76
2023/02/05 02:39:20;;;;;;;;;4.00;4.00;;;;;11.05;54.88;103753.13;2002716;28;2736728;-76
2023/02/05 02:41:00;;;;;;;;;3.50;2.00;;;;;11.05;54.63;103745.25;2004839;28;2749583;-76
2023/02/05 02:43:03;;;;;;;;;4.50;4.00;;;;;11.03;55.02;103748.75;2004792;28;2754424;-76
2023/02/05 02:44:28;;;;;;;;;4.17;3.00;;;;;11.05;55.18;103758.41;1999870;28;2750268;-76
2023/02/05 02:45:58;;;;;;;;;3.33;3.33;;;;;11.05;55.04;103768.94;2028889;28;2737765;-76
2023/02/05 02:47:18;;;;;;;;;5.33;3.67;;;;;11.04;54.44;103789.09;2004468;28;2754436;-76
2023/02/05 02:48:34;;;;;;;;;6.00;4.17;;;;;11.00;54.27;103782.91;2027700;28;2752352;-76
2023/02/05 02:50:00;;;;;;;;;4.17;3.33;;;;;11.00;54.52;103787.28;1996621;28;2748230;-76
2023/02/05 02:51:16;;;;;;;;;4.00;4.00;;;;;11.00;54.45;103790.81;2022715;28;2749279;-76
2023/02/05 02:52:32;;;;;;;;;5.33;4.00;;;;;11.00;54.33;103789.94;1978853;28;2752380;-76
2023/02/05 02:53:50;;;;;;;;;5.17;5.17;;;;;11.00;54.17;103795.19;2019054;28;2750265;-76
2023/02/05 02:55:08;;;;;;;;;4.67;2.83;;;;;11.00;54.29;103798.72;2023766;28;2746090;-76
2023/02/05 02:56:25;;;;;;;;;9.17;5.67;;;;;10.99;53.83;103802.19;2019867;28;2745046;-76
2023/02/05 02:57:42;;;;;;;;;3.00;3.00;;;;;11.00;53.51;103810.97;2000427;28;2726332;-76
2023/02/05 02:59:02;;;;;;;;;3.50;2.67;;;;;10.97;53.78;103814.44;2031501;28;2746115;-76
2023/02/05 03:00:21;;;;;;;;;3.67;3.00;;;;;10.95;53.45;103810.91;2007969;28;2726330;-76
2023/02/05 03:01:38;;;;;;;;;4.50;2.50;;;;;10.94;53.70;103817.03;2013081;28;2742271;-76
2023/02/05 03:03:01;;;;;;;;;4.00;2.17;;;;;10.92;53.84;103818.75;2011234;28;2754443;-76
2023/02/05 03:04:19;;;;;;;;;1.33;1.17;;;;;10.88;53.49;103806.44;2014054;28;2719572;-76
2023/02/05 03:05:34;;;;;;;;;3.17;3.17;;;;;10.86;53.58;103808.16;2032566;28;2744023;-76
2023/02/05 03:06:53;;;;;;;;;5.67;4.17;;;;;10.84;53.97;103799.34;2002583;28;2752443;-76
2023/02/05 03:08:26;;;;;;;;;1.50;1.50;;;;;10.84;54.20;103805.47;2007664;28;2733612;-76
2023/02/05 03:09:51;;;;;;;;;5.17;3.33;;;;;10.85;53.56;103806.38;2027473;28;2744038;-76
2023/02/05 03:11:10;;;;;;;;;2.33;2.33;;;;;10.85;54.06;103814.25;1978852;28;2754428;-76
2023/02/05 03:12:23;;;;;;;;;5.50;3.00;;;;;10.85;54.54;103819.53;2018198;28;2754454;-76
2023/02/05 03:13:36;;;;;;;;;1.67;1.50;;;;;10.84;53.62;103823.03;1999232;28;2723179;-76
2023/02/05 03:14:51;;;;;;;;;3.67;3.00;;;;;10.80;53.88;103825.59;2009329;28;2746166;-76
2023/02/05 03:16:05;;;;;;;;;4.00;3.00;;;;;10.79;53.96;103822.97;2020314;28;2738815;-76
2023/02/05 03:17:18;;;;;;;;;4.33;4.33;;;;;10.79;53.98;103818.56;1971745;28;2754435;-76
2023/02/05 03:18:30;;;;;;;;;13.00;10.00;;;;;10.79;54.29;103817.72;1999816;28;3507538;-76
2023/02/05 03:19:45;;;;;;;;;10.33;8.00;;;;;10.79;53.97;103813.31;2018586;28;2750263;-76
2023/02/05 03:21:11;;;;;;;;;6.83;4.00;;;;;10.79;54.08;103813.31;1990093;28;2747175;-76
2023/02/05 03:22:24;;;;;;;;;2.50;2.00;;;;;10.80;54.21;103816.81;2030267;28;2746438;-76
2023/02/05 03:23:37;;;;;;;;;5.83;3.83;;;;;10.80;54.32;103815.09;2013335;28;2741960;-76
2023/02/05 03:24:52;;;;;;;;;2.83;2.00;;;;;10.82;54.57;103819.47;2011848;28;2748293;-76
2023/02/05 03:26:29;;;;;;;;;10.83;6.67;;;;;10.81;53.88;103818.59;2004609;28;2752368;-76
2023/02/05 03:27:42;;;;;;;;;1.17;1.17;;;;;10.79;54.40;103821.19;1996340;28;2744015;-76
2023/02/05 03:28:54;;;;;;;;;4.00;4.00;;;;;10.78;54.15;103822.06;1995221;28;2754444;-76
2023/02/05 03:30:06;;;;;;;;;16.00;13.00;;;;;10.78;54.24;103829.97;1990870;28;3545052;-76
2023/02/05 03:31:52;;;;;;;;;3.00;3.00;;;;;10.78;54.43;103827.34;2020036;28;2742998;-76
2023/02/05 03:33:25;;;;;;;;;2.17;2.17;;;;;10.78;54.26;103821.19;1983755;28;2739896;-76
2023/02/05 03:35:04;;;;;;;;;3.00;3.00;;;;;10.77;54.05;103819.41;2001550;28;2750331;-76
2023/02/05 03:36:45;;;;;;;;;10.00;7.00;;;;;10.75;54.39;103832.53;1989276;28;3463838;-76
2023/02/05 03:38:18;;;;;;;;;4.50;3.17;;;;;10.75;53.85;103836.91;2024813;28;2738831;-76
2023/02/05 03:39:54;;;;;;;;;2.17;2.17;;;;;10.71;54.29;103835.09;2028311;28;2739905;-76
2023/02/05 03:41:15;;;;;;;;;4.50;3.00;;;;;10.68;54.60;103830.69;2029271;28;2734147;-76
2023/02/05 03:42:52;;;;;;;;;3.50;3.50;;;;;10.67;54.56;103828.88;2028418;28;2739861;-76
2023/02/05 03:44:16;;;;;;;;;4.00;4.00;;;;;10.65;54.43;103826.25;2004503;28;2754463;-76
2023/02/05 03:45:55;;;;;;;;;6.33;4.17;;;;;10.66;54.76;103825.41;2002376;28;2752367;-76
2023/02/05 03:47:43;;;;;;;;;3.83;3.00;;;;;10.66;54.82;103828.03;2009439;28;2745153;-76
2023/02/05 03:49:02;;;;;;;;;6.67;5.50;;;;;10.66;54.89;103820.13;2004100;28;2748217;-76
2023/02/05 03:50:15;;;;;;;;;7.67;5.00;;;;;10.66;54.84;103822.78;2022500;28;2737758;-76
2023/02/05 03:51:36;;;;;;;;;5.00;3.33;;;;;10.65;54.22;103826.25;1980481;28;2746617;-76
2023/02/05 03:52:53;;;;;;;;;8.00;8.00;;;;;10.65;54.76;103820.09;2004332;28;2739982;-76
2023/02/05 03:54:19;;;;;;;;;7.33;5.50;;;;;10.63;54.67;103822.72;2035377;28;2750269;-76
2023/02/05 03:55:38;;;;;;;;;12.33;8.33;;;;;10.63;54.73;103816.56;1986297;28;2753436;-76
2023/02/05 03:56:56;;;;;;;;;8.33;5.67;;;;;10.63;54.69;103832.34;2030525;28;2746630;-76
2023/02/05 03:58:16;;;;;;;;;15.00;9.00;;;;;10.62;54.11;103828.81;1994965;28;2756527;-76
2023/02/05 03:59:31;;;;;;;;;5.83;5.00;;;;;10.62;55.09;103815.66;1998614;28;2752790;-76
2023/02/05 04:00:45;;;;;;;;;4.67;4.33;;;;;10.61;55.28;103816.53;2004930;28;2754436;-76
2023/02/05 04:01:58;;;;;;;;;5.83;5.50;;;;;10.62;54.75;103815.66;2018900;28;2741040;-76
2023/02/05 04:03:12;;;;;;;;;5.83;4.17;;;;;10.61;54.99;103818.28;1997672;28;2741975;-76
2023/02/05 04:04:25;;;;;;;;;5.50;3.83;;;;;10.58;54.98;103812.13;2028916;28;2745065;-76
2023/02/05 04:05:36;;;;;;;;;11.67;10.00;;;;;10.56;55.21;103819.09;1984321;28;3504445;-76
2023/02/05 04:06:51;;;;;;;;;7.50;3.75;;;;;10.55;55.23;103817.31;2018107;28;2749252;-76
2023/02/05 04:08:05;;;;;;;;;8.83;7.33;;;;;10.56;55.21;103815.56;2021316;28;2730486;-76
2023/02/05 04:09:18;;;;;;;;;5.33;4.67;;;;;10.55;55.47;103821.69;2004186;28;2749212;-76
2023/02/05 04:10:30;;;;;;;;;11.50;10.00;;;;;10.54;55.33;103818.16;1978143;28;2785704;-76
2023/02/05 04:11:43;;;;;;;;;7.17;4.83;;;;;10.56;55.48;103820.84;2029259;28;2740879;-76
2023/02/05 04:12:57;;;;;;;;;8.33;5.83;;;;;10.55;55.45;103819.94;2033179;28;2746090;-76
2023/02/05 04:14:10;;;;;;;;;9.50;7.83;;;;;10.56;55.61;103815.56;2013816;28;2749275;-76
2023/02/05 04:15:20;;;;;;;;;9.67;8.67;;;;;10.58;55.49;103813.84;1987461;28;2752353;-76
2023/02/05 04:16:31;;;;;;;;;5.00;5.00;;;;;10.57;55.40;103810.31;2031039;28;2745049;-76
2023/02/05 04:17:44;;;;;;;;;5.00;4.33;;;;;10.60;55.65;103811.22;2005036;28;2746098;-76
2023/02/05 04:18:56;;;;;;;;;10.00;9.50;;;;;10.62;55.58;103825.31;2006346;28;1844068;-76
2023/02/05 04:20:08;;;;;;;;;14.25;10.75;;;;;10.62;55.52;103815.66;2006482;28;1843536;-76
2023/02/05 04:21:21;;;;;;;;;3.83;3.33;;;;;10.61;55.86;103824.44;2028174;28;2750277;-76
2023/02/05 04:22:34;;;;;;;;;6.17;5.00;;;;;10.61;55.62;103819.16;2012789;28;2745084;-76
2023/02/05 04:23:47;;;;;;;;;4.00;4.00;;;;;10.62;55.63;103817.44;2005145;28;2750253;-76
2023/02/05 04:25:01;;;;;;;;;6.00;6.00;;;;;10.63;55.89;103821.81;2029554;28;2746111;-76
2023/02/05 04:26:14;;;;;;;;;5.33;3.17;;;;;10.63;55.75;103819.19;2026512;28;2745045;-76
2023/02/05 04:27:24;;;;;;;;;4.00;4.00;;;;;10.64;56.04;103818.34;1980669;28;2752352;-76
2023/02/05 04:28:35;;;;;;;;;6.00;6.00;;;;;10.65;55.97;103825.34;2034493;28;2746182;-76
2023/02/05 04:29:49;;;;;;;;;10.50;8.67;;;;;10.63;55.92;103817.44;2024390;28;2740918;-76
2023/02/05 04:31:06;;;;;;;;;5.33;5.33;;;;;10.65;55.83;103820.09;2004776;28;2748206;-76
2023/02/05 04:32:16;;;;;;;;;6.00;5.67;;;;;10.64;56.14;103824.47;1994825;28;2745117;-76
2023/02/05 04:33:27;;;;;;;;;10.00;10.00;;;;;10.64;55.80;103824.47;2020658;28;2780504;-76
2023/02/05 04:34:38;;;;;;;;;4.00;4.00;;;;;10.63;56.23;103833.22;2035821;28;2754458;-76
2023/02/05 04:35:57;;;;;;;;;4.00;3.67;;;;;10.61;55.65;103826.16;2012328;28;2741963;-76
2023/02/05 04:37:10;;;;;;;;;4.50;2.83;;;;;10.62;56.34;103838.47;2006428;28;2745104;-76
2023/02/05 04:38:23;;;;;;;;;4.00;3.00;;;;;10.60;56.04;103841.06;2006634;28;2746095;-76
2023/02/05 04:39:36;;;;;;;;;6.67;4.83;;;;;10.58;56.19;103843.69;2028175;28;2747136;-76
2023/02/05 04:40:47;;;;;;;;;5.00;4.00;;;;;10.55;56.04;103846.25;1971533;28;2750277;-76
2023/02/05 04:42:00;;;;;;;;;7.00;6.00;;;;;10.55;55.86;103837.47;2021040;28;2737848;-76
2023/02/05 04:43:13;;;;;;;;;8.00;5.50;;;;;10.53;56.50;103833.94;2035539;28;2731489;-76
2023/02/05 04:44:27;;;;;;;;;9.00;7.33;;;;;10.52;56.31;103840.91;2012130;28;2751678;-76
2023/02/05 04:45:40;;;;;;;;;6.00;5.00;;;;;10.52;56.78;103842.69;2036897;28;2743013;-77
2023/02/05 04:46:53;;;;;;;;;4.17;4.00;;;;;10.51;56.63;103841.81;2035245;28;2754472;-76
2023/02/05 04:48:07;;;;;;;;;7.67;5.83;;;;;10.51;56.64;103849.69;1997287;28;2739830;-76
2023/02/05 04:49:20;;;;;;;;;7.50;5.00;;;;;10.52;56.70;103848.81;1997773;28;2741964;-76
2023/02/05 04:50:31;;;;;;;;;9.00;8.00;;;;;10.53;56.50;103858.50;1994033;28;3451282;-76
2023/02/05 04:51:43;;;;;;;;;7.00;6.75;;;;;10.53;56.58;103847.97;2019636;28;2740959;-76
2023/02/05 04:52:56;;;;;;;;;9.17;7.17;;;;;10.55;56.87;103847.97;1998214;28;2744003;-76
2023/02/05 04:54:09;;;;;;;;;5.50;5.50;;;;;10.56;56.70;103849.78;2020048;28;2739876;-76
2023/02/05 04:55:22;;;;;;;;;5.50;5.50;;;;;10.57;56.74;103855.03;2020797;28;2748217;-76
2023/02/05 04:56:35;;;;;;;;;4.67;4.67;;;;;10.58;57.01;103851.56;2028562;28;2752399;-76
2023/02/05 04:57:46;;;;;;;;;12.33;9.00;;;;;10.61;56.59;103847.22;2002073;28;2770161;-76
2023/02/05 04:58:57;;;;;;;;;7.67;7.00;;;;;10.60;56.17;103851.59;2027914;28;2739864;-76
2023/02/05 05:00:10;;;;;;;;;20.00;14.83;;;;;10.58;56.20;103853.31;2005418;28;1840966;-76
2023/02/05 05:01:24;;;;;;;;;8.17;7.00;;;;;10.56;56.10;103848.03;2006224;28;2736747;-76
2023/02/05 05:02:34;;;;;;;;;17.00;13.00;;;;;10.55;56.69;103848.88;1990719;28;3539809;-76
2023/02/05 05:03:46;;;;;;;;;12.50;9.25;;;;;10.54;56.33;103844.47;1992610;28;1827417;-76
2023/02/05 05:04:59;;;;;;;;;7.33;6.50;;;;;10.53;56.57;103839.19;2006936;28;2740358;-76
2023/02/05 05:06:13;;;;;;;;;5.83;5.83;;;;;10.52;56.58;103840.91;2027876;28;2746219;-76
2023/02/05 05:07:29;;;;;;;;;8.00;8.00;;;;;10.53;56.66;103836.56;2034131;28;2732554;-76
2023/02/05 05:08:41;;;;;;;;;17.00;13.33;;;;;10.52;56.34;103826.91;2001120;28;3542974;-76
2023/02/05 05:09:52;;;;;;;;;10.00;10.00;;;;;10.50;56.63;103824.19;2020742;28;1848268;-76
2023/02/05 05:11:07;;;;;;;;;23.00;19.00;;;;;10.51;56.62;103823.38;2000582;28;2836104;-76
2023/02/05 05:12:18;;;;;;;;;17.25;13.50;;;;;10.50;56.91;103839.97;2015066;28;1843988;-76
2023/02/05 05:13:32;;;;;;;;;13.67;10.00;;;;;10.50;56.45;103834.72;1999545;28;3510667;-76
2023/02/05 05:14:45;;;;;;;;;11.50;9.33;;;;;10.49;56.62;103839.97;2026038;28;1825324;-76
2023/02/05 05:15:58;;;;;;;;;14.17;12.67;;;;;10.47;56.76;103838.19;1992763;28;1837861;-76
2023/02/05 05:17:13;;;;;;;;;34.67;25.83;;;;;10.50;56.76;103849.59;1996820;28;2855486;-76
2023/02/05 05:18:24;;;;;;;;;14.67;10.67;;;;;10.49;56.75;103834.72;2008153;28;3509563;-77
2023/02/05 05:19:35;;;;;;;;;32.00;24.00;;;;;10.50;56.55;103842.63;2001929;28;2850281;-76
2023/02/05 05:20:47;;;;;;;;;32.20;27.00;;;;;10.50;56.61;103832.09;1995662;28;3595008;-76
2023/02/05 05:21:59;;;;;;;;;8.40;8.40;;;;;10.51;56.75;103835.66;2021857;28;1822178;-76
2023/02/05 05:23:10;;;;;;;;;37.00;28.67;;;;;10.50;56.85;103837.34;1992775;28;3595070;-76
2023/02/05 05:24:22;;;;;;;;;34.80;30.40;;;;;10.50;56.76;103831.19;1997073;28;3606438;-76
2023/02/05 05:25:40;;;;;;;;;51.80;35.40;;;;;10.49;56.96;103835.59;2001893;28;3626217;-76
2023/02/05 05:26:51;;;;;;;;;34.00;26.00;;;;;10.48;56.97;103831.19;1969526;28;2849703;-76
2023/02/05 05:28:02;;;;;;;;;18.00;11.00;;;;;10.49;56.64;103838.22;1991281;28;2825250;-76
2023/02/05 05:29:14;;;;;;;;;20.40;17.40;;;;;10.48;56.89;103846.97;1995011;28;1838835;-76
2023/02/05 05:30:24;;;;;;;;;13.00;10.33;;;;;10.47;56.58;103848.69;1992173;28;3513784;-76
2023/02/05 05:31:35;;;;;;;;;12.33;11.00;;;;;10.46;56.91;103851.31;2016071;28;3517959;-76
2023/02/05 05:32:47;;;;;;;;;8.50;5.00;;;;;10.43;56.96;103857.41;2027959;28;2750261;-76
2023/02/05 05:34:00;;;;;;;;;15.33;13.83;;;;;10.45;56.91;103865.31;2030469;28;1821234;-76
2023/02/05 05:35:11;;;;;;;;;13.67;9.67;;;;;10.45;56.99;103860.06;1978907;28;3498147;-76
2023/02/05 05:36:22;;;;;;;;;9.33;7.33;;;;;10.45;56.96;103862.69;2017948;28;2755564;-76
2023/02/05 05:37:33;;;;;;;;;7.75;7.75;;;;;10.44;56.90;103864.44;2035066;28;2740919;-76
2023/02/05 05:38:47;;;;;;;;;8.83;8.83;;;;;10.43;57.06;103861.78;2029374;28;2728387;-76
2023/02/05 05:44:33;;;;;;;;;9.33;6.17;;;;;10.41;57.55;103866.13;2005509;28;2732578;-76
2023/02/05 05:45:46;;;;;;;;;8.33;8.33;;;;;10.39;57.08;103870.47;2006187;28;2726292;-76
2023/02/05 05:46:57;;;;;;;;;10.00;7.00;;;;;10.38;57.05;103868.69;1978153;28;3477339;-76
2023/02/05 05:48:08;;;;;;;;;13.33;12.00;;;;;10.38;57.24;103868.69;2017655;28;3510660;-76
2023/02/05 05:49:19;;;;;;;;;3.67;3.00;;;;;10.35;57.39;103870.41;2004353;28;2746119;-76
2023/02/05 05:50:30;;;;;;;;;9.67;7.67;;;;;10.35;57.50;103878.28;2020071;28;2745467;-76